• Join FlightAware (Why Join?)
  • Login
  • US Flag 
01:59AM EDT


 

Airport Tracker/Info


-or-


 

Live Flight TrackerFlight Track Log ✈ SWA2624 ✈ 26-Apr-2013 ✈ KBWI - KABQ

Flight Track Log - Related Links

Times and Time Zones

All times are in EDT time to prevent confusion due to time zone crossing. See the SWA2624 flight status page for this flight to view local times or setup timezone preferences in your user account.

Time Position Orientation Groundspeed Altitude Reporting Facility
EDT Latitude Longitude Course Direction KTS MPH feet Rate Location/Type
06:49PM 39.1833 -76.7667 218° Southwest 214 246 2,400  Level Potomac TRACON
06:50PM 39.2000 -76.8333 288° West 252 290 5,600 3,780 Climbing Potomac TRACON
06:50PM 39.2167 -76.9333 282° West 265 305 9,600 2,940 Climbing Potomac TRACON
06:53PM 39.1950 -77.1689 263° West 322 371 15,400 2,520 Climbing Washington Center
06:54PM 39.0159 -77.3008 218° Southwest  Level FlightAware Approximate
06:54PM 39.1083 -77.2500 216° Southwest 330 380 18,300  Level Washington Center
06:55PM 39.0669 -77.3722 246° West 347 399 20,900 2,640 Climbing Washington Center
06:56PM 39.0381 -77.4997 254° West 369 425 23,500 2,400 Climbing Washington Center
06:57PM 39.0044 -77.6350 252° West 387 445 25,800 1,680 Climbing Washington Center
06:58PM 38.9664 -77.7808 251° West 400 460 27,000 1,500 Climbing Washington Center
06:59PM 38.9306 -77.9186 252° West 400 460 28,900 2,160 Climbing Washington Center
07:00PM 38.8967 -78.0456 251° West 400 460 31,300 2,100 Climbing Washington Center
07:01PM 38.8628 -78.1722 251° West 387 445 33,100 1,320 Climbing Washington Center
07:02PM 38.8539 -78.2972 265° West 375 432 34,000 900 Climbing Washington Center
07:03PM 38.8511 -78.4197 268° West 359 413 35,000 1,440 Climbing Washington Center
07:04PM 38.8503 -78.5397 270° West 347 399 36,900 1,320 Climbing Washington Center
07:05PM 38.8494 -78.6569 270° West 341 392 37,700 540 Climbing Washington Center
07:06PM 38.8483 -78.7769 269° West 341 392 38,000 120 Climbing Washington Center
07:07PM 38.8450 -78.9019 268° West 346 398 38,000  Level Washington Center
07:08PM 38.8456 -79.0275 270° West 352 405 38,000  Level Washington Center
07:09PM 38.8439 -79.1525 269° West 352 405 38,000  Level Washington Center
07:10PM 38.8278 -79.2769 261° West 352 405 38,000  Level Washington Center
07:11PM 38.8072 -79.3986 258° West 352 405 38,000  Level Washington Center
07:12PM 38.7844 -79.5225 257° West 352 405 38,000  Level Washington Center
07:13PM 38.7636 -79.6492 258° West 359 413 38,000  Level Washington Center
07:14PM 38.7408 -79.7706 257° West 359 413 38,000  Level Washington Center
07:15PM 38.7197 -79.8892 257° West 353 406 38,000  Level Washington Center
07:16PM 38.6975 -79.9914 254° West 348 400 38,000  Level Washington Center
07:18PM 38.6561 -80.2019 256° West 341 392 38,000  Level Indianapolis Center
07:19PM 38.6339 -80.3203 257° West 342 394 38,000  Level Indianapolis Center
07:20PM 38.6106 -80.4392 256° West 344 396 38,000  Level Indianapolis Center
07:21PM 38.5897 -80.5575 257° West 342 394 38,000  Level Indianapolis Center
07:22PM 38.5667 -80.6775 256° West 345 397 38,000  Level Indianapolis Center
07:23PM 38.5428 -80.7956 256° West 343 395 38,000  Level Indianapolis Center
07:24PM 38.5194 -80.9153 256° West 345 397 38,000  Level Indianapolis Center
07:25PM 38.4964 -81.0358 256° West 348 400 38,000  Level Indianapolis Center
07:26PM 38.4733 -81.1542 256° West 343 395 38,000  Level Indianapolis Center
07:27PM 38.4442 -81.2961 255° West 342 394 38,000  Level Indianapolis Center
07:28PM 38.4208 -81.4144 256° West 340 391 38,000  Level Indianapolis Center
07:29PM 38.3972 -81.5336 256° West 342 394 38,000  Level Indianapolis Center
07:30PM 38.3742 -81.6511 256° West 340 391 38,000  Level Indianapolis Center
07:31PM 38.3506 -81.7683 256° West 340 391 38,000  Level Indianapolis Center
07:32PM 38.3450 -81.8881 267° West 337 388 38,000  Level Indianapolis Center
07:33PM 38.3400 -82.0069 267° West 336 387 38,000  Level Indianapolis Center
07:34PM 38.3350 -82.1256 267° West 334 384 38,000  Level Indianapolis Center
07:35PM 38.3292 -82.2458 266° West 338 389 38,000  Level Indianapolis Center
07:36PM 38.3222 -82.3636 266° West 335 386 38,000  Level Indianapolis Center
07:37PM 38.3144 -82.5072 266° West 337 388 38,000  Level Indianapolis Center
07:38PM 38.3083 -82.6136 266° West 337 388 38,000  Level Indianapolis Center
07:39PM 38.3003 -82.7525 266° West 337 388 38,000  Level Indianapolis Center
07:40PM 38.2936 -82.8711 266° West 337 388 38,000  Level Indianapolis Center
07:41PM 38.2858 -82.9900 265° West 338 389 38,000  Level Indianapolis Center
07:42PM 38.2792 -83.1086 266° West 337 388 38,000  Level Indianapolis Center
07:43PM 38.2722 -83.2264 266° West 335 386 38,000  Level Indianapolis Center
07:44PM 38.2650 -83.3453 266° West 336 387 38,000  Level Indianapolis Center
07:45PM 38.2564 -83.4636 265° West 335 386 38,000  Level Indianapolis Center
07:46PM 38.2481 -83.6025 266° West 337 388 38,000  Level Indianapolis Center
07:47PM 38.2397 -83.7233 265° West 342 394 38,000  Level Indianapolis Center
07:48PM 38.2317 -83.8433 265° West 342 394 38,000  Level Indianapolis Center
07:49PM 38.2233 -83.9642 265° West 342 394 38,000  Level Indianapolis Center
07:50PM 38.2153 -84.0847 265° West 344 396 38,000  Level Indianapolis Center
07:51PM 38.2061 -84.2061 265° West 347 399 38,000  Level Indianapolis Center
07:52PM 38.1978 -84.3289 265° West 348 400 38,000  Level Indianapolis Center
07:53PM 38.1875 -84.4683 265° West 342 394 38,000  Level Indianapolis Center
07:55PM 38.1778 -84.5903 264° West 346 398 38,000  Level Indianapolis Center
07:56PM 38.1694 -84.7111 265° West 344 396 38,000  Level Indianapolis Center
07:57PM 38.1600 -84.8339 264° West 347 399 38,000  Level Indianapolis Center
07:58PM 38.1528 -84.9536 266° West 343 395 38,000  Level Indianapolis Center
07:59PM 38.1431 -85.0767 264° West 348 400 38,000  Level Indianapolis Center
08:00PM 38.1328 -85.2083 264° West 356 410 38,000  Level Indianapolis Center
08:01PM 38.1228 -85.3344 264° West 358 412 38,000  Level Indianapolis Center
08:02PM 38.1128 -85.4608 264° West 361 415 38,000  Level Indianapolis Center
08:03PM 38.1022 -85.5889 264° West 362 417 38,000  Level Indianapolis Center
08:04PM 38.0936 -85.7150 265° West 359 413 38,000  Level Indianapolis Center
08:05PM 38.0822 -85.8678 265° West 361 415 38,000  Level Indianapolis Center
08:06PM 38.0736 -85.9958 265° West 363 418 38,000  Level Indianapolis Center
08:07PM 38.0644 -86.1244 265° West 363 418 38,000  Level Indianapolis Center
08:08PM 38.0531 -86.2547 264° West 368 423 38,000  Level Indianapolis Center
08:09PM 38.0431 -86.3836 264° West 366 421 38,000  Level Indianapolis Center
08:10PM 38.0328 -86.5122 264° West 366 421 38,000  Level Indianapolis Center
08:11PM 38.0222 -86.6411 264° West 364 419 38,000  Level Indianapolis Center
08:12PM 38.0122 -86.7689 264° West 363 418 38,000  Level Indianapolis Center
08:13PM 38.0022 -86.8997 264° West 366 421 38,000  Level Indianapolis Center
08:14PM 37.9914 -87.0300 264° West 368 423 38,000  Level Indianapolis Center
08:15PM 37.9797 -87.1603 264° West 367 422 38,000  Level Indianapolis Center
08:16PM 37.9686 -87.2903 264° West 367 422 38,000  Level Indianapolis Center
08:17PM 37.9581 -87.4192 264° West 366 421 38,000  Level Indianapolis Center
08:18PM 37.9472 -87.5469 264° West 363 418 38,000  Level Indianapolis Center
08:19PM 37.9328 -87.7017 263° West 366 421 38,000  Level Indianapolis Center
08:20PM 37.9219 -87.8289 264° West 363 418 38,000  Level Indianapolis Center
08:21PM 37.9175 -87.8794 264° West 363 418 38,000  Level Kansas City Center
08:22PM 37.9056 -88.0056 263° West 360 414 38,000  Level Kansas City Center
08:23PM 37.8939 -88.1319 263° West 359 413 38,000  Level Kansas City Center
08:24PM 37.8822 -88.2586 263° West 360 414 38,000  Level Kansas City Center
08:24PM 37.8733 -88.3336 261° West 361 415 38,000  Level Indianapolis Center
08:25PM 37.8686 -88.3850 263° West 361 415 38,000  Level Kansas City Center
08:26PM 37.8569 -88.5119 263° West 362 417 38,000  Level Kansas City Center
08:27PM 37.8444 -88.6386 263° West 362 417 38,000  Level Kansas City Center
08:28PM 37.8317 -88.7678 263° West 358 412 38,000  Level Kansas City Center
08:29PM 37.8181 -88.8933 262° West 359 413 38,100 660 Climbing Kansas City Center
08:30PM 37.8017 -89.0447 262° West 361 415 39,400 900 Climbing Kansas City Center
08:31PM 37.7892 -89.1697 263° West 361 415 40,000 240 Climbing Kansas City Center
08:32PM 37.7758 -89.2931 262° West 359 413 40,000  Level Kansas City Center
08:33PM 37.7631 -89.4183 263° West 359 413 40,000  Level Kansas City Center
08:34PM 37.7481 -89.5461 262° West 362 417 40,000  Level Kansas City Center
08:35PM 37.7353 -89.6714 263° West 362 417 40,000  Level Kansas City Center
08:36PM 37.7219 -89.7969 262° West 361 415 40,000  Level Kansas City Center
08:37PM 37.7078 -89.9242 262° West 363 418 40,000  Level Kansas City Center
08:38PM 37.6936 -90.0511 262° West 365 420 40,000  Level Kansas City Center
08:39PM 37.6758 -90.2044 262° West 366 421 40,000  Level Kansas City Center
08:40PM 37.6639 -90.3319 263° West 366 421 40,000  Level Kansas City Center
08:41PM 37.6517 -90.4578 263° West 363 418 40,000  Level Kansas City Center
08:42PM 37.6400 -90.5872 264° West 367 422 40,000  Level Kansas City Center
08:43PM 37.6278 -90.7183 263° West 373 429 40,000  Level Kansas City Center
08:44PM 37.6147 -90.8614 263° West 372 428 40,000  Level Kansas City Center
08:45PM 37.6008 -90.9942 263° West 377 434 40,000  Level Kansas City Center
08:46PM 37.5883 -91.1258 263° West 377 434 40,000  Level Kansas City Center
08:47PM 37.5758 -91.2611 263° West 382 440 40,000  Level Kansas City Center
08:48PM 37.5617 -91.3947 262° West 384 442 40,000  Level Kansas City Center
08:49PM 37.5497 -91.5281 264° West 382 440 40,000  Level Kansas City Center
08:50PM 37.5358 -91.6625 263° West 383 441 40,000  Level Kansas City Center
08:51PM 37.5219 -91.7967 263° West 383 441 40,000  Level Kansas City Center
08:52PM 37.5083 -91.9300 263° West 382 440 40,000  Level Kansas City Center
08:53PM 37.4944 -92.0619 262° West 378 435 40,000  Level Kansas City Center
08:54PM 37.4806 -92.1958 263° West 380 437 40,000  Level Kansas City Center
08:55PM 37.4647 -92.3569 263° West 382 440 40,000  Level Kansas City Center
08:57PM 37.4506 -92.4908 262° West 381 438 40,000  Level Kansas City Center
08:58PM 37.4356 -92.6258 262° West 384 442 40,000  Level Kansas City Center
08:59PM 37.4203 -92.7592 262° West 384 442 40,000  Level Kansas City Center
09:00PM 37.4058 -92.8933 262° West 384 442 40,000  Level Kansas City Center
09:01PM 37.3903 -93.0269 262° West 385 443 40,000  Level Kansas City Center
09:02PM 37.3756 -93.1631 262° West 388 447 40,000  Level Kansas City Center
09:03PM 37.3594 -93.2964 261° West 387 445 40,000  Level Kansas City Center
09:04PM 37.3417 -93.4317 261° West 389 448 40,000  Level Kansas City Center
09:05PM 37.3172 -93.5653 257° West 391 450 40,000  Level Kansas City Center
09:06PM 37.2917 -93.6978 256° West 391 450 40,000  Level Kansas City Center
09:07PM 37.2594 -93.8572 256° West 391 450 40,000  Level Kansas City Center
09:08PM 37.2339 -93.9903 256° West 391 450 40,000  Level Kansas City Center
09:09PM 37.2092 -94.1219 257° West 393 452 40,000  Level Kansas City Center
09:10PM 37.1847 -94.2561 257° West 393 452 40,000  Level Kansas City Center
09:11PM 37.1589 -94.3892 256° West 392 451 40,000  Level Kansas City Center
09:12PM 37.1339 -94.5219 257° West 392 451 40,000  Level Kansas City Center
09:13PM 37.1206 -94.6550 263° West 386 444 40,000  Level Kansas City Center
09:14PM 37.1303 -94.7914 275° West 389 448 40,000  Level Kansas City Center
09:15PM 37.1403 -94.9267 275° West 391 450 40,000  Level Kansas City Center
09:16PM 37.1514 -95.0881 275° West 390 449 40,000  Level Kansas City Center
09:17PM 37.1519 -95.2214 270° West 387 445 40,000  Level Kansas City Center
09:18PM 37.1075 -95.3414 245° Southwest 382 440 40,000  Level Kansas City Center
09:19PM 37.0600 -95.4636 244° Southwest 389 448 40,000  Level Kansas City Center
09:20PM 37.0114 -95.5825 243° Southwest 387 445 40,000  Level Kansas City Center
09:21PM 36.9639 -95.7014 243° Southwest 385 443 40,000  Level Kansas City Center
09:22PM 36.9153 -95.8225 243° Southwest 389 448 40,000  Level Kansas City Center
09:23PM 36.8653 -95.9431 243° Southwest 390 449 40,000  Level Kansas City Center
09:24PM 36.8292 -96.1000 254° West 401 461 40,000  Level Kansas City Center
09:25PM 36.8189 -96.2392 265° West 404 465 40,000  Level Kansas City Center
09:26PM 36.8083 -96.3794 265° West 406 467 40,000  Level Kansas City Center
09:27PM 36.7978 -96.5197 265° West 407 468 40,000  Level Kansas City Center
09:28PM 36.7872 -96.6600 265° West 407 468 40,000  Level Kansas City Center
09:29PM 36.7761 -96.8017 264° West 409 471 40,000  Level Kansas City Center
09:30PM 36.7642 -96.9425 264° West 409 471 40,000  Level Kansas City Center
09:31PM 36.7539 -97.0856 265° West 411 473 40,000  Level Kansas City Center
09:32PM 36.7394 -97.2261 263° West 411 473 40,000  Level Kansas City Center
09:33PM 36.7194 -97.3639 260° West 410 472 40,000  Level Kansas City Center
09:34PM 36.6989 -97.5067 260° West 412 474 40,000  Level Kansas City Center
09:35PM 36.6750 -97.6781 260° West 416 479 40,000  Level Kansas City Center
09:36PM 36.6578 -97.7997 260° West 408 470 40,000  Level Kansas City Center
09:37PM 36.6381 -97.9356 260° West 400 460 40,000  Level Kansas City Center
09:38PM 36.6192 -98.0647 260° West 386 444 40,000  Level Kansas City Center
09:39PM 36.5975 -98.2178 260° West 377 434 40,000  Level Kansas City Center
09:41PM 36.5789 -98.3442 260° West 373 429 40,000  Level Kansas City Center
09:42PM 36.5594 -98.4708 259° West 373 429 40,000  Level Kansas City Center
09:43PM 36.5408 -98.6006 260° West 378 435 40,000  Level Kansas City Center
09:44PM 36.5222 -98.7319 260° West 383 441 40,000  Level Kansas City Center
09:45PM 36.5017 -98.8644 259° West 388 447 40,000  Level Kansas City Center
09:46PM 36.4825 -98.9961 260° West 388 447 40,000  Level Kansas City Center
09:47PM 36.4619 -99.1292 259° West 391 450 40,000  Level Kansas City Center
09:48PM 36.4406 -99.2628 259° West 395 455 40,000  Level Kansas City Center
09:49PM 36.4200 -99.3969 259° West 397 457 40,000  Level Kansas City Center
09:50PM 36.3953 -99.5567 259° West 396 456 40,000  Level Kansas City Center
09:51PM 36.3747 -99.6903 259° West 395 455 40,000  Level Kansas City Center
09:52PM 36.3536 -99.8233 259° West 394 453 40,000  Level Kansas City Center
09:53PM 36.3186 -99.9533 252° West 397 457 40,000  Level Kansas City Center
09:54PM 36.2739 -100.0800 246° West 402 463 40,000  Level Kansas City Center
09:55PM 36.2286 -100.2092 247° West 406 467 40,000  Level Kansas City Center
09:56PM 36.1814 -100.3386 246° West 410 472 40,000  Level Kansas City Center
09:57PM 36.1361 -100.4656 246° West 406 467 40,000  Level Kansas City Center
09:58PM 36.0908 -100.5925 246° West 405 466 40,000  Level Albuquerque Center
09:59PM 36.0478 -100.7181 247° West 399 459 40,000  Level Albuquerque Center
10:00PM 36.0031 -100.8425 246° West 397 457 40,000  Level Albuquerque Center
10:01PM 35.9539 -100.9781 246° West 395 455 40,000  Level Albuquerque Center
10:02PM 35.9106 -101.1031 247° West 397 457 40,000  Level Albuquerque Center
10:03PM 35.8639 -101.2261 245° Southwest 399 459 40,000  Level Albuquerque Center
10:04PM 35.8183 -101.3494 246° West 397 457 40,000  Level Albuquerque Center
10:05PM 35.7806 -101.4758 250° West 397 457 40,000  Level Albuquerque Center
10:06PM 35.7464 -101.6050 252° West 398 458 40,000  Level Albuquerque Center
10:07PM 35.7050 -101.7614 252° West 403 464 40,000  Level Albuquerque Center
10:08PM 35.6689 -101.8883 251° West 399 459 40,000  Level Albuquerque Center
10:09PM 35.6328 -102.0167 251° West 400 460 40,000  Level Albuquerque Center
10:10PM 35.5967 -102.1464 251° West 403 464 40,000  Level Albuquerque Center
10:11PM 35.5600 -102.2758 251° West 404 465 40,000  Level Albuquerque Center
10:12PM 35.5244 -102.4033 251° West 400 460 40,000  Level Albuquerque Center
10:13PM 35.4869 -102.5333 251° West 404 465 40,000  Level Albuquerque Center
10:14PM 35.4506 -102.6656 251° West 400 460 40,000  Level Albuquerque Center
10:15PM 35.4075 -102.8178 251° West 401 461 40,000  Level Albuquerque Center
10:16PM 35.3706 -102.9483 251° West 401 461 40,000  Level Albuquerque Center
10:17PM 35.3336 -103.0775 251° West 399 459 40,000  Level Albuquerque Center
10:18PM 35.2964 -103.2072 251° West 400 460 40,000  Level Albuquerque Center
10:19PM 35.2592 -103.3364 251° West 399 459 40,000  Level Albuquerque Center
10:20PM 35.2225 -103.4636 251° West 394 453 40,000  Level Albuquerque Center
10:21PM 35.1861 -103.5889 250° West 389 448 40,000  Level Albuquerque Center
10:22PM 35.1778 -103.7206 266° West 387 445 40,000  Level Albuquerque Center
10:23PM 35.1714 -103.8506 267° West 382 440 40,000  Level Albuquerque Center
10:24PM 35.1661 -103.9919 267° West 383 441 40,000  Level Albuquerque Center
10:25PM 35.1594 -104.1242 267° West 389 448 40,000  Level Albuquerque Center
10:26PM 35.1539 -104.2564 267° West 391 450 40,000 -180 Level Albuquerque Center
10:27PM 35.1464 -104.3872 266° West 389 448 39,700 -600 Descending Albuquerque Center
10:28PM 35.1408 -104.5156 267° West 383 441 38,800 -960 Descending Albuquerque Center
10:29PM 35.1314 -104.6508 265° West 383 441 37,800 -1,020 Descending Albuquerque Center
10:30PM 35.1253 -104.7833 267° West 386 444 36,800 -1,380 Descending Albuquerque Center
10:31PM 35.1183 -104.9186 266° West 393 452 35,100 -2,400 Descending Albuquerque Center
10:32PM 35.1114 -105.0556 266° West 398 458 32,000 -2,760 Descending Albuquerque Center
10:33PM 35.0911 -105.1867 259° West 392 451 29,500 -2,400 Descending Albuquerque Center
10:34PM 35.0728 -105.3103 260° West 374 430 27,200 -2,280 Descending Albuquerque Center
10:36PM 35.0547 -105.4278 259° West 356 410 24,900 -1,920 Descending Albuquerque Center
10:37PM 35.0353 -105.5431 258° West 346 398 23,300 -2,160 Descending Albuquerque Center
10:38PM 35.0142 -105.6633 258° West 356 410 20,500 -2,100 Descending Albuquerque Center
10:39PM 34.9961 -105.7800 259° West 352 405 19,100 -1,680 Descending Albuquerque Center
10:39PM 34.9889 -105.8178 257° West 341 392 18,400 -1,920 Descending Albuquerque Center
10:40PM 34.9769 -105.8914 259° West 333 383 17,200 -1,620 Descending Albuquerque Center
10:41PM 34.9592 -106.0014 259° West 331 381 15,600 -1,620 Descending Albuquerque Center
10:42PM 34.9522 -106.1058 265° West 317 365 14,000 -1,620 Descending Albuquerque Center
10:43PM 34.9456 -106.2100 266° West 309 356 12,400 -1,620 Descending Albuquerque Center
10:44PM 34.9369 -106.3125 264° West 306 352 10,800 -1,200 Descending Albuquerque Center
10:45PM 34.9278 -106.4133 264° West 303 349 10,000 -840 Descending Albuquerque Center
10:46PM 34.9208 -106.5033 265° West 286 329 9,200 -1,140 Descending Albuquerque Center
10:47PM 34.9286 -106.5786 277° West 247 284 7,700 -1,080 Descending Albuquerque Center
10:48PM 34.9456 -106.6489 286° West 205 236 7,000 -780 Descending Albuquerque Center
10:49PM 34.9831 -106.6728 332° Northwest 141 162 6,200 -780 Descending Albuquerque Center
10:50PM 35.0133 -106.6389 43° Northeast 148 170 5,500 -540 Descending Albuquerque Center
10:51PM 35.0411 -106.6050 45° Northeast 155 178 5,200 -300 Descending Albuquerque Center